createdAt,value
2017-06-19T00:00:29.891Z,0
2017-06-19T00:01:40.144Z,0
2017-06-19T00:02:50.185Z,0
2017-06-19T00:03:59.915Z,0
2017-06-19T00:05:10.502Z,0
2017-06-19T00:06:20.527Z,0
2017-06-19T00:07:30.880Z,0
2017-06-19T00:08:40.602Z,0
2017-06-19T00:09:50.334Z,0
2017-06-19T00:11:00.644Z,0
2017-06-19T00:12:31.250Z,0
2017-06-19T00:13:41.600Z,0
2017-06-19T00:14:51.660Z,0
2017-06-19T00:16:02.014Z,0
2017-06-19T00:17:12.260Z,0
2017-06-19T00:18:22.285Z,0
2017-06-19T00:19:32.332Z,0
2017-06-19T00:20:42.712Z,0
2017-06-19T00:21:53.060Z,0
2017-06-19T00:23:03.418Z,0
2017-06-19T00:24:13.474Z,0
2017-06-19T00:25:23.513Z,0
2017-06-19T00:26:33.859Z,0
2017-06-19T00:27:44.646Z,0
2017-06-19T00:28:54.994Z,0
2017-06-19T00:30:05.353Z,0
2017-06-19T00:31:15.386Z,0
2017-06-19T00:32:25.736Z,0
2017-06-19T00:33:35.829Z,0
2017-06-19T00:35:12.259Z,0
2017-06-19T00:36:22.633Z,0
2017-06-19T00:37:32.895Z,0
2017-06-19T00:38:43.513Z,0
2017-06-19T00:39:53.543Z,0
2017-06-19T00:41:03.578Z,0
2017-06-19T00:42:13.931Z,0
2017-06-19T00:43:24.319Z,0
2017-06-19T00:44:34.707Z,0
2017-06-19T00:45:44.752Z,0
2017-06-19T00:46:54.803Z,0
2017-06-19T00:48:04.850Z,0
2017-06-19T00:49:15.198Z,0
2017-06-19T00:50:25.281Z,0
2017-06-19T00:51:35.372Z,0
2017-06-19T00:52:46.175Z,0
2017-06-19T00:53:56.502Z,0
2017-06-19T00:55:06.876Z,0
2017-06-19T00:56:17.292Z,0
2017-06-19T00:57:27.647Z,0
2017-06-19T00:58:38.087Z,0
2017-06-19T00:59:48.445Z,0
2017-06-19T01:00:58.701Z,0
2017-06-19T01:02:09.093Z,0
2017-06-19T01:03:19.444Z,0
2017-06-19T01:04:29.790Z,0
2017-06-19T01:05:39.885Z,0
2017-06-19T01:06:50.234Z,0
2017-06-19T01:07:59.957Z,0
2017-06-19T01:09:10.315Z,0
2017-06-19T01:10:20.665Z,0
2017-06-19T01:13:12.235Z,0
2017-06-19T01:14:22.329Z,0
2017-06-19T01:15:32.677Z,0
2017-06-19T01:16:43.029Z,0
2017-06-19T01:17:53.388Z,0
2017-06-19T01:19:03.779Z,0
2017-06-19T01:20:14.254Z,0
2017-06-19T01:21:24.588Z,0
2017-06-19T01:22:34.935Z,0
2017-06-19T01:23:45.270Z,0
2017-06-19T01:24:55.642Z,0
2017-06-19T01:26:05.745Z,0
2017-06-19T01:27:16.147Z,0
2017-06-19T01:28:25.889Z,0
2017-06-19T01:29:35.919Z,0
2017-06-19T01:30:45.990Z,0
2017-06-19T01:31:56.034Z,0
2017-06-19T01:33:06.424Z,0
2017-06-19T01:34:16.788Z,0
2017-06-19T01:35:27.144Z,0
2017-06-19T01:36:37.176Z,0
2017-06-19T01:37:47.516Z,0
2017-06-19T01:38:57.852Z,0
2017-06-19T01:40:08.220Z,0
2017-06-19T01:41:18.257Z,0
2017-06-19T01:42:28.659Z,0
2017-06-19T01:43:39.026Z,0
2017-06-19T01:44:49.638Z,0
2017-06-19T01:45:59.690Z,0
2017-06-19T01:47:10.027Z,0
2017-06-19T01:48:20.467Z,0
2017-06-19T01:49:30.509Z,0
2017-06-19T01:50:40.550Z,0
2017-06-19T01:51:50.972Z,0
2017-06-19T01:53:01.010Z,0
2017-06-19T01:54:11.073Z,0
2017-06-19T01:55:21.435Z,0
2017-06-19T01:56:31.805Z,0
2017-06-19T01:57:41.847Z,0
2017-06-19T01:58:52.204Z,0
2017-06-19T02:00:02.286Z,0
2017-06-19T02:01:12.660Z,0
2017-06-19T02:02:23.074Z,0
2017-06-19T02:03:33.624Z,0
2017-06-19T02:04:43.987Z,0
2017-06-19T02:05:54.028Z,0
2017-06-19T02:07:04.393Z,0
2017-06-19T02:08:14.457Z,0
2017-06-19T02:09:24.808Z,0
2017-06-19T02:10:35.163Z,0
2017-06-19T02:11:45.554Z,0
2017-06-19T02:12:55.910Z,0
2017-06-19T02:14:06.317Z,0
2017-06-19T02:15:16.863Z,0
2017-06-19T02:16:26.900Z,0
2017-06-19T02:17:37.171Z,0
2017-06-19T02:18:47.589Z,0
2017-06-19T02:19:57.309Z,0
2017-06-19T02:21:07.713Z,0
2017-06-19T02:22:18.188Z,0
2017-06-19T02:23:28.585Z,0
2017-06-19T02:24:39.134Z,0
2017-06-19T02:25:49.558Z,0
2017-06-19T02:26:59.922Z,0
2017-06-19T02:28:09.952Z,0
2017-06-19T02:29:20.008Z,0
2017-06-19T02:30:30.350Z,0
2017-06-19T02:31:40.773Z,0
2017-06-19T02:32:51.396Z,0
2017-06-19T02:34:01.751Z,0
2017-06-19T02:35:12.362Z,0
2017-06-19T02:36:22.396Z,0
2017-06-19T02:37:32.841Z,0
2017-06-19T02:38:42.898Z,0
2017-06-19T02:39:53.284Z,0
2017-06-19T02:41:03.358Z,0
2017-06-19T02:42:13.734Z,0
2017-06-19T02:43:24.101Z,0
2017-06-19T02:44:34.153Z,0
2017-06-19T02:45:44.204Z,0
2017-06-19T02:46:54.610Z,0
2017-06-19T02:48:04.954Z,0
2017-06-19T02:49:14.979Z,5
2017-06-19T02:50:25.006Z,5
2017-06-19T02:51:35.578Z,5
2017-06-19T02:52:45.971Z,5
2017-06-19T02:53:56.367Z,5
2017-06-19T02:55:06.389Z,5
2017-06-19T02:56:16.774Z,5
2017-06-19T02:57:27.329Z,5
2017-06-19T02:58:37.368Z,10
2017-06-19T02:59:47.434Z,10
2017-06-19T03:00:57.942Z,10
2017-06-19T03:33:18.696Z,40
2017-06-19T03:34:29.054Z,40
2017-06-19T03:35:39.404Z,40
2017-06-19T03:36:49.845Z,40
2017-06-19T03:38:00.185Z,45
2017-06-19T03:39:10.580Z,45
2017-06-19T03:40:20.623Z,45
2017-06-19T03:41:30.639Z,45
2017-06-19T03:42:41.011Z,50
2017-06-19T03:43:51.749Z,50
2017-06-19T03:45:02.204Z,50
2017-06-19T03:46:12.628Z,50
2017-06-19T03:47:22.861Z,55
2017-06-19T03:48:33.418Z,55
2017-06-19T03:49:43.827Z,60
2017-06-19T03:50:54.191Z,70
2017-06-19T03:52:04.675Z,80
2017-06-19T03:53:14.731Z,75
2017-06-19T03:54:25.104Z,70
2017-06-19T03:55:35.733Z,65
2017-06-19T03:56:46.215Z,65
2017-06-19T03:57:56.632Z,65
2017-06-19T03:59:06.979Z,65
2017-06-19T04:00:16.711Z,65
2017-06-19T04:01:27.080Z,70
2017-06-19T04:02:37.704Z,70
2017-06-19T04:03:47.791Z,70
2017-06-19T04:04:58.142Z,70
2017-06-19T04:06:08.176Z,75
2017-06-19T04:07:18.537Z,75
2017-06-19T04:08:28.506Z,75
2017-06-19T04:09:39.012Z,75
2017-06-19T04:10:49.593Z,75
2017-06-19T04:11:59.325Z,75
2017-06-19T04:13:09.356Z,80
2017-06-19T04:14:19.766Z,80
2017-06-19T04:15:30.300Z,80
2017-06-19T04:16:40.666Z,85
2017-06-19T04:17:50.698Z,115
2017-06-19T04:19:01.060Z,405
2017-06-19T04:20:11.442Z,600
2017-06-19T04:21:21.820Z,605
2017-06-19T04:22:32.178Z,585
2017-06-19T04:24:14.523Z,610
2017-06-19T04:25:24.946Z,610
2017-06-19T04:26:35.383Z,585
2017-06-19T04:28:12.333Z,630
2017-06-19T04:29:22.752Z,675
2017-06-19T04:30:33.339Z,630
2017-06-19T04:31:43.678Z,560
2017-06-19T04:32:53.727Z,555
2017-06-19T04:34:03.982Z,620
2017-06-19T04:35:14.563Z,660
2017-06-19T04:36:24.918Z,675
2017-06-19T04:37:35.477Z,650
2017-06-19T04:38:45.541Z,620
2017-06-19T04:39:55.318Z,650
2017-06-19T04:41:05.679Z,660
2017-06-19T04:42:15.464Z,655
2017-06-19T04:43:25.830Z,670
2017-06-19T04:44:35.885Z,650
2017-06-19T04:45:46.225Z,660
2017-06-19T04:46:55.989Z,660
2017-06-19T04:48:06.363Z,660
2017-06-19T04:49:16.721Z,670
2017-06-19T04:50:27.078Z,680
2017-06-19T04:51:37.430Z,690
2017-06-19T04:52:48.008Z,675
2017-06-19T04:53:58.425Z,660
2017-06-19T04:55:08.846Z,665
2017-06-19T04:56:18.568Z,650
2017-06-19T04:57:28.643Z,645
2017-06-19T04:58:38.958Z,650
2017-06-19T04:59:49.075Z,665
2017-06-19T05:00:59.438Z,685
2017-06-19T05:02:09.825Z,670
2017-06-19T05:03:20.226Z,660
2017-06-19T05:04:48.000Z,670
2017-06-19T05:06:17.775Z,655
2017-06-19T05:07:28.167Z,615
2017-06-19T05:08:38.549Z,645
2017-06-19T05:09:48.908Z,645
2017-06-19T05:10:59.265Z,610
2017-06-19T05:12:09.651Z,570
2017-06-19T05:13:20.008Z,530
2017-06-19T05:14:30.470Z,480
2017-06-19T05:15:40.885Z,455
2017-06-19T05:16:51.467Z,415
2017-06-19T05:18:01.864Z,385
2017-06-19T05:19:12.317Z,365
2017-06-19T05:20:22.567Z,355
2017-06-19T05:21:32.666Z,345
2017-06-19T05:22:42.895Z,345
2017-06-19T05:23:53.308Z,345
2017-06-19T05:25:03.691Z,335
2017-06-19T05:26:13.777Z,330
2017-06-19T05:27:23.873Z,330
2017-06-19T05:29:01.948Z,340
2017-06-19T05:30:12.337Z,335
2017-06-19T05:31:22.729Z,335
2017-06-19T05:32:47.846Z,335
2017-06-19T05:33:57.604Z,335
2017-06-19T05:35:08.671Z,345
2017-06-19T05:36:19.006Z,340
2017-06-19T05:37:29.903Z,340
2017-06-19T05:38:40.342Z,345
2017-06-19T05:40:23.887Z,345
2017-06-19T05:41:34.344Z,345
2017-06-19T05:42:45.167Z,360
2017-06-19T05:43:55.603Z,360
2017-06-19T05:45:05.652Z,375
2017-06-19T05:46:15.794Z,380
2017-06-19T05:47:25.941Z,385
2017-06-19T05:48:35.667Z,385
2017-06-19T05:49:46.287Z,395
2017-06-19T05:50:56.660Z,405
2017-06-19T05:52:07.446Z,410
2017-06-19T05:53:17.822Z,420
2017-06-19T05:54:27.865Z,440
2017-06-19T05:55:38.272Z,440
2017-06-19T05:56:48.637Z,445
2017-06-19T05:57:58.978Z,455
2017-06-19T05:59:09.041Z,460
2017-06-19T06:00:19.178Z,485
2017-06-19T06:01:29.809Z,495
2017-06-19T06:02:40.146Z,495
2017-06-19T06:03:50.504Z,495
2017-06-19T06:05:00.567Z,490
2017-06-19T06:06:10.662Z,495
2017-06-19T06:07:21.371Z,490
2017-06-19T06:08:31.837Z,480
2017-06-19T06:09:42.217Z,470
2017-06-19T06:10:52.574Z,455
2017-06-19T06:12:02.965Z,440
2017-06-19T06:13:13.397Z,430
2017-06-19T06:14:23.952Z,430
2017-06-19T06:15:34.007Z,420
2017-06-19T06:16:44.599Z,420
2017-06-19T06:17:54.653Z,420
2017-06-19T06:19:05.304Z,415
2017-06-19T06:20:15.889Z,410
2017-06-19T06:21:26.264Z,395
2017-06-19T06:22:37.098Z,380
2017-06-19T06:23:47.533Z,375
2017-06-19T06:24:57.997Z,365
2017-06-19T06:26:08.074Z,360
2017-06-19T06:27:18.332Z,360
2017-06-19T06:28:28.517Z,355
2017-06-19T06:29:55.180Z,355
2017-06-19T06:31:05.646Z,350
2017-06-19T06:32:16.010Z,350
2017-06-19T06:33:26.391Z,330
2017-06-19T06:34:36.454Z,330
2017-06-19T06:35:47.426Z,320
2017-06-19T06:36:57.789Z,320
2017-06-19T06:38:08.174Z,310
2017-06-19T06:39:31.775Z,305
2017-06-19T06:40:42.193Z,305
2017-06-19T06:41:52.774Z,305
2017-06-19T06:43:02.840Z,300
2017-06-19T06:45:03.820Z,295
2017-06-19T06:46:14.143Z,280
2017-06-19T06:47:24.560Z,280
2017-06-19T06:48:34.952Z,275
2017-06-19T06:49:45.552Z,275
2017-06-19T06:51:22.792Z,275
2017-06-19T06:52:33.221Z,265
2017-06-19T06:53:43.819Z,260
2017-06-19T06:54:53.930Z,260
2017-06-19T06:56:20.736Z,255
2017-06-19T06:57:31.368Z,250
2017-06-19T06:59:08.908Z,245
2017-06-19T07:00:19.320Z,240
2017-06-19T07:01:29.955Z,235
2017-06-19T07:02:50.327Z,230
2017-06-19T07:04:00.990Z,225
2017-06-19T07:05:11.413Z,220
2017-06-19T07:06:22.003Z,215
2017-06-19T07:07:32.375Z,210
2017-06-19T07:08:42.787Z,210
2017-06-19T07:09:53.211Z,200
2017-06-19T07:11:03.619Z,200
2017-06-19T07:12:20.617Z,195
2017-06-19T07:13:31.038Z,190
2017-06-19T07:14:41.687Z,185
2017-06-19T07:15:52.296Z,175
2017-06-19T07:17:02.941Z,170
2017-06-19T07:18:13.336Z,165
2017-06-19T07:19:23.450Z,165
2017-06-19T07:20:33.824Z,165
2017-06-19T07:21:50.350Z,165
2017-06-19T07:23:00.424Z,165
2017-06-19T07:24:55.035Z,165
2017-06-19T07:26:05.452Z,165
2017-06-19T07:27:15.576Z,170
2017-06-19T07:28:26.193Z,170
2017-06-19T07:29:36.918Z,170
2017-06-19T07:30:47.330Z,170
2017-06-19T07:32:29.476Z,170
2017-06-19T07:33:39.535Z,170
2017-06-19T07:34:50.116Z,170
2017-06-19T07:36:00.498Z,170
2017-06-19T07:37:10.560Z,175
2017-06-19T07:38:20.931Z,175
2017-06-19T07:39:31.308Z,175
2017-06-19T07:40:41.712Z,175
2017-06-19T07:41:52.205Z,175
2017-06-19T07:43:02.625Z,175
2017-06-19T07:44:12.995Z,175
2017-06-19T07:45:50.278Z,175
2017-06-19T07:47:00.694Z,175
2017-06-19T07:48:11.076Z,175
2017-06-19T07:49:21.135Z,175
2017-06-19T07:50:31.571Z,175
2017-06-19T07:51:41.993Z,175
2017-06-19T07:52:52.557Z,175
2017-06-19T07:54:03.123Z,175
2017-06-19T07:55:13.466Z,175
2017-06-19T07:56:24.043Z,175
2017-06-19T07:57:34.469Z,175
2017-06-19T07:58:44.856Z,175
2017-06-19T07:59:55.249Z,175
2017-06-19T08:01:05.340Z,180
2017-06-19T08:02:15.433Z,180
2017-06-19T08:03:26.118Z,180
2017-06-19T08:04:42.496Z,180
2017-06-19T08:05:52.835Z,185
2017-06-19T08:07:03.294Z,180
2017-06-19T08:08:13.673Z,180
2017-06-19T08:09:24.136Z,185
2017-06-19T08:12:16.648Z,185
2017-06-19T08:13:26.733Z,185
2017-06-19T08:14:37.390Z,185
2017-06-19T08:15:48.160Z,185
2017-06-19T08:16:58.572Z,185
2017-06-19T08:18:08.975Z,185
2017-06-19T08:19:19.332Z,185
2017-06-19T08:20:29.889Z,190
2017-06-19T08:21:53.886Z,190
2017-06-19T08:23:04.521Z,185
2017-06-19T08:24:14.876Z,185
2017-06-19T08:25:41.997Z,190
2017-06-19T08:26:52.606Z,190
2017-06-19T08:28:02.651Z,190
2017-06-19T08:29:13.010Z,195
2017-06-19T08:30:23.370Z,190
2017-06-19T08:31:33.527Z,190
2017-06-19T08:32:43.932Z,190
2017-06-19T08:33:54.295Z,190
2017-06-19T08:35:04.650Z,195
2017-06-19T08:36:14.772Z,190
2017-06-19T08:37:24.969Z,190
2017-06-19T08:38:34.712Z,195
2017-06-19T08:39:45.052Z,195
2017-06-19T08:40:55.088Z,195
2017-06-19T08:42:05.701Z,190
2017-06-19T08:43:16.412Z,195
2017-06-19T08:44:27.189Z,195
2017-06-19T08:45:37.791Z,195
2017-06-19T08:46:48.381Z,195
2017-06-19T08:48:45.232Z,195
2017-06-19T08:49:55.697Z,200
2017-06-19T08:51:06.101Z,195
2017-06-19T08:52:15.982Z,195
2017-06-19T08:53:26.277Z,195
2017-06-19T08:54:36.938Z,195
2017-06-19T08:56:11.186Z,195
2017-06-19T08:57:21.588Z,195
2017-06-19T08:58:54.822Z,200
2017-06-19T09:01:47.999Z,200
2017-06-19T09:02:58.015Z,195
2017-06-19T09:04:08.376Z,200
2017-06-19T09:05:18.824Z,200
2017-06-19T09:06:29.216Z,200
2017-06-19T09:07:39.286Z,200
2017-06-19T09:08:49.946Z,200
2017-06-19T09:09:59.999Z,195
2017-06-19T09:11:10.109Z,200
2017-06-19T09:12:23.052Z,195
2017-06-19T09:13:33.624Z,195
2017-06-19T09:14:43.649Z,200
2017-06-19T09:15:53.717Z,200
2017-06-19T09:17:04.386Z,200
2017-06-19T09:19:12.268Z,205
2017-06-19T09:20:22.659Z,200
2017-06-19T09:21:32.985Z,200
2017-06-19T09:22:58.045Z,200
2017-06-19T09:24:08.655Z,205
2017-06-19T09:25:18.701Z,205
2017-06-19T09:29:14.715Z,205
2017-06-19T09:30:25.067Z,205
2017-06-19T09:31:35.103Z,205
2017-06-19T09:32:45.459Z,205
2017-06-19T09:33:55.802Z,205
2017-06-19T09:35:06.168Z,205
2017-06-19T09:36:16.198Z,205
2017-06-19T09:37:26.561Z,205
2017-06-19T09:38:36.606Z,205
2017-06-19T09:39:46.658Z,210
2017-06-19T09:40:57.082Z,205
2017-06-19T09:42:07.134Z,210
2017-06-19T09:43:17.522Z,210
2017-06-19T09:44:27.868Z,210
2017-06-19T09:45:38.246Z,210
2017-06-19T09:46:48.647Z,210
2017-06-19T09:47:59.028Z,210
2017-06-19T09:49:09.386Z,210
2017-06-19T09:50:19.750Z,210
2017-06-19T09:51:30.135Z,210
2017-06-19T09:52:40.236Z,210
2017-06-19T09:53:50.641Z,210
2017-06-19T09:55:00.998Z,210
2017-06-19T09:56:10.740Z,215
2017-06-19T09:57:21.095Z,210
2017-06-19T09:58:31.579Z,210
2017-06-19T09:59:41.056Z,210
2017-06-19T10:00:54.309Z,210
2017-06-19T10:02:04.834Z,215
2017-06-19T10:03:15.187Z,215
2017-06-19T10:04:25.574Z,215
2017-06-19T10:05:35.624Z,215
2017-06-19T10:06:45.669Z,215
2017-06-19T10:07:56.095Z,215
2017-06-19T10:09:06.464Z,215
2017-06-19T10:10:16.507Z,215
2017-06-19T10:11:26.861Z,220
2017-06-19T10:12:37.208Z,220
2017-06-19T10:13:47.587Z,220
2017-06-19T10:14:57.944Z,220
2017-06-19T10:16:08.034Z,220
2017-06-19T10:17:18.387Z,220
2017-06-19T10:18:28.742Z,220
2017-06-19T10:19:39.140Z,220
2017-06-19T10:20:49.184Z,215
2017-06-19T10:21:59.545Z,220
2017-06-19T10:23:09.901Z,220
2017-06-19T10:24:19.643Z,220
2017-06-19T10:25:30.016Z,225
2017-06-19T10:26:39.745Z,225
2017-06-19T10:27:50.089Z,220
2017-06-19T10:29:00.151Z,220
2017-06-19T10:30:10.181Z,220
2017-06-19T10:31:20.219Z,220
2017-06-19T10:32:30.592Z,220
2017-06-19T10:33:41.257Z,220
2017-06-19T10:34:51.294Z,225
2017-06-19T10:36:01.642Z,225
2017-06-19T10:37:11.993Z,220
2017-06-19T10:38:22.345Z,225
2017-06-19T10:39:32.130Z,225
2017-06-19T10:40:42.489Z,225
2017-06-19T10:41:52.530Z,225
2017-06-19T10:43:02.886Z,225
2017-06-19T10:44:13.264Z,225
2017-06-19T10:45:23.143Z,225
2017-06-19T10:46:33.499Z,230
2017-06-19T10:47:43.845Z,230
2017-06-19T10:48:54.212Z,230
2017-06-19T10:50:04.250Z,230
2017-06-19T10:51:14.298Z,230
2017-06-19T10:52:24.665Z,230
2017-06-19T10:53:34.714Z,230
2017-06-19T10:54:45.078Z,230
2017-06-19T10:55:55.433Z,230
2017-06-19T10:57:05.492Z,230
2017-06-19T10:58:15.537Z,230
2017-06-19T10:59:25.927Z,230
2017-06-19T11:00:35.703Z,230
2017-06-19T11:01:45.758Z,230
2017-06-19T11:02:56.126Z,230
2017-06-19T11:04:06.165Z,230
2017-06-19T11:05:16.523Z,230
2017-06-19T11:06:26.892Z,230
2017-06-19T11:07:36.934Z,230
2017-06-19T11:08:46.990Z,230
2017-06-19T11:09:57.349Z,230
2017-06-19T11:11:07.073Z,230
2017-06-19T11:12:17.426Z,230
2017-06-19T11:13:27.785Z,230
2017-06-19T11:14:38.161Z,230
2017-06-19T11:15:48.501Z,230
2017-06-19T11:16:58.872Z,230
2017-06-19T11:18:09.267Z,230
2017-06-19T11:19:19.638Z,230
2017-06-19T11:20:30.003Z,230
2017-06-19T11:21:39.744Z,230
2017-06-19T11:22:49.807Z,230
2017-06-19T11:24:00.213Z,235
2017-06-19T11:25:10.255Z,235
2017-06-19T11:26:20.607Z,240
2017-06-19T11:27:30.990Z,240
2017-06-19T11:28:41.047Z,235
2017-06-19T11:29:51.438Z,235
2017-06-19T11:31:01.480Z,235
2017-06-19T11:32:11.831Z,235
2017-06-19T11:33:22.183Z,235
2017-06-19T11:34:32.243Z,235
2017-06-19T11:35:42.382Z,235
2017-06-19T11:36:52.443Z,235
2017-06-19T11:38:02.800Z,235
2017-06-19T11:39:12.841Z,235
2017-06-19T11:40:23.199Z,240
2017-06-19T11:41:33.614Z,230
2017-06-19T11:42:43.982Z,230
2017-06-19T11:43:54.333Z,235
2017-06-19T11:45:04.368Z,230
2017-06-19T11:46:14.732Z,230
2017-06-19T11:47:24.814Z,230
2017-06-19T11:48:34.843Z,235
2017-06-19T11:49:44.879Z,230
2017-06-19T11:50:55.245Z,230
2017-06-19T11:52:05.302Z,235
2017-06-19T11:53:15.671Z,235
2017-06-19T11:54:25.730Z,235
2017-06-19T11:55:36.102Z,230
2017-06-19T11:56:46.469Z,235
2017-06-19T11:57:56.513Z,235
2017-06-19T11:59:06.926Z,235
2017-06-19T12:00:17.301Z,235
2017-06-19T12:01:27.663Z,235
2017-06-19T12:02:37.725Z,235
2017-06-19T12:03:47.770Z,235
2017-06-19T12:04:58.186Z,240
2017-06-19T12:06:08.544Z,235
2017-06-19T12:07:18.284Z,235
2017-06-19T12:08:28.341Z,235
2017-06-19T12:09:38.712Z,235
2017-06-19T12:10:49.070Z,235
2017-06-19T12:11:59.149Z,240
2017-06-19T12:13:09.268Z,235
2017-06-19T12:14:19.673Z,235
2017-06-19T12:15:30.051Z,235
2017-06-19T12:16:40.506Z,235
2017-06-19T12:17:50.879Z,235
2017-06-19T12:19:01.286Z,235
2017-06-19T12:20:11.378Z,235
2017-06-19T12:21:21.439Z,235
2017-06-19T12:22:31.924Z,235
2017-06-19T12:23:42.347Z,235
2017-06-19T12:24:52.112Z,235
2017-06-19T12:26:02.506Z,235
2017-06-19T12:27:12.908Z,235
2017-06-19T12:28:23.261Z,235
2017-06-19T12:29:33.628Z,235
2017-06-19T12:30:44.160Z,235
2017-06-19T12:31:54.809Z,240
2017-06-19T12:33:05.369Z,230
2017-06-19T12:34:15.498Z,235
2017-06-19T12:35:25.847Z,230
2017-06-19T12:36:36.229Z,230
2017-06-19T12:37:46.589Z,230
2017-06-19T12:38:56.963Z,230
2017-06-19T12:40:07.022Z,235
2017-06-19T12:41:17.380Z,235
2017-06-19T12:42:27.761Z,235
2017-06-19T12:43:37.812Z,235
2017-06-19T12:44:48.185Z,230
2017-06-19T12:45:58.599Z,230
2017-06-19T12:47:08.647Z,230
2017-06-19T12:48:19.026Z,230
2017-06-19T12:49:29.130Z,230
2017-06-19T12:50:39.488Z,230
2017-06-19T12:51:49.606Z,225
2017-06-19T12:52:59.961Z,230
2017-06-19T12:54:10.312Z,225
2017-06-19T12:55:20.665Z,225
2017-06-19T12:56:31.023Z,225
2017-06-19T12:57:41.401Z,225
2017-06-19T12:58:51.452Z,225
2017-06-19T13:00:01.854Z,225
2017-06-19T13:01:12.234Z,225
2017-06-19T13:02:22.601Z,225
2017-06-19T13:03:33.039Z,225
2017-06-19T13:04:43.405Z,225
2017-06-19T13:05:53.781Z,225
2017-06-19T13:07:04.149Z,225
2017-06-19T13:08:14.529Z,225
2017-06-19T13:09:24.929Z,225
2017-06-19T13:10:34.986Z,225
2017-06-19T13:11:45.357Z,225
2017-06-19T13:12:55.728Z,225
2017-06-19T13:14:05.778Z,220
2017-06-19T13:15:16.210Z,225
2017-06-19T13:16:26.273Z,225
2017-06-19T13:17:36.638Z,220
2017-06-19T13:18:47.001Z,220
2017-06-19T13:19:57.357Z,225
2017-06-19T13:21:07.804Z,220
2017-06-19T13:22:18.182Z,220
2017-06-19T13:23:28.557Z,225
2017-06-19T13:24:38.623Z,225
2017-06-19T13:25:48.996Z,220
2017-06-19T13:26:59.395Z,215
2017-06-19T13:28:09.457Z,215
2017-06-19T13:29:19.826Z,215
2017-06-19T13:30:29.575Z,215
2017-06-19T13:31:39.648Z,215
2017-06-19T13:32:49.759Z,215
2017-06-19T13:33:59.829Z,215
2017-06-19T13:35:10.256Z,215
2017-06-19T13:36:19.998Z,215
2017-06-19T13:37:30.356Z,210
2017-06-19T13:38:40.442Z,210
2017-06-19T13:39:50.507Z,210
2017-06-19T13:41:00.577Z,210
2017-06-19T13:42:10.978Z,210
2017-06-19T13:43:21.069Z,210
2017-06-19T13:44:30.831Z,215
2017-06-19T13:45:41.224Z,215
2017-06-19T13:46:51.618Z,215
2017-06-19T13:48:02.089Z,205
2017-06-19T13:49:12.531Z,205
2017-06-19T13:50:22.917Z,205
2017-06-19T13:51:33.288Z,205
2017-06-19T13:52:43.668Z,205
2017-06-19T13:53:54.086Z,205
2017-06-19T13:55:04.456Z,205
2017-06-19T13:56:14.836Z,205
2017-06-19T13:57:24.894Z,210
2017-06-19T13:58:35.257Z,205
2017-06-19T13:59:45.692Z,200
2017-06-19T14:00:55.750Z,200
2017-06-19T14:02:05.522Z,200
2017-06-19T14:03:15.559Z,200
2017-06-19T14:04:25.911Z,200
2017-06-19T14:05:36.033Z,200
2017-06-19T14:06:46.093Z,205
2017-06-19T14:07:56.471Z,205
2017-06-19T14:09:06.525Z,200
2017-06-19T14:10:16.876Z,200
2017-06-19T14:11:26.977Z,200
2017-06-19T14:12:37.020Z,195
2017-06-19T14:13:47.116Z,195
2017-06-19T14:14:56.894Z,195
2017-06-19T14:16:07.233Z,195
2017-06-19T14:17:16.727Z,195
2017-06-19T14:18:27.089Z,195
2017-06-19T14:19:37.469Z,195
2017-06-19T14:20:47.551Z,195
2017-06-19T14:21:57.589Z,195
2017-06-19T14:23:08.019Z,190
2017-06-19T14:24:18.376Z,190
2017-06-19T14:25:28.468Z,190
2017-06-19T14:26:38.847Z,190
2017-06-19T14:27:49.221Z,190
2017-06-19T14:28:59.662Z,190
2017-06-19T14:30:10.055Z,190
2017-06-19T14:31:20.470Z,190
2017-06-19T14:32:30.884Z,190
2017-06-19T14:33:41.280Z,190
2017-06-19T14:34:51.703Z,190
2017-06-19T14:36:02.089Z,190
2017-06-19T14:37:12.458Z,195
2017-06-19T14:38:22.877Z,190
2017-06-19T14:39:32.911Z,190
2017-06-19T14:40:43.331Z,190
2017-06-19T14:41:53.724Z,190
2017-06-19T14:43:04.133Z,185
2017-06-19T14:44:14.564Z,185
2017-06-19T14:45:24.950Z,185
2017-06-19T14:46:35.394Z,185
2017-06-19T14:47:45.775Z,185
2017-06-19T14:48:56.185Z,185
2017-06-19T14:50:06.260Z,185
2017-06-19T14:51:16.661Z,185
2017-06-19T14:52:27.131Z,185
2017-06-19T14:53:37.500Z,180
2017-06-19T14:54:47.554Z,180
2017-06-19T14:55:57.919Z,180
2017-06-19T14:57:07.978Z,180
2017-06-19T14:58:18.087Z,180
2017-06-19T14:59:28.143Z,180
2017-06-19T15:00:38.537Z,180
2017-06-19T15:01:48.613Z,175
2017-06-19T15:02:58.699Z,175
2017-06-19T15:04:08.512Z,175
2017-06-19T15:05:18.872Z,175
2017-06-19T15:06:29.244Z,175
2017-06-19T15:07:39.652Z,175
2017-06-19T15:08:50.033Z,170
2017-06-19T15:10:00.450Z,170
2017-06-19T15:11:10.493Z,170
2017-06-19T15:12:20.859Z,170
2017-06-19T15:13:31.243Z,170
2017-06-19T15:14:41.599Z,170
2017-06-19T15:15:52.050Z,170
2017-06-19T15:17:02.426Z,170
2017-06-19T15:18:12.804Z,170
2017-06-19T15:19:22.869Z,165
2017-06-19T15:20:33.248Z,165
2017-06-19T15:21:43.624Z,165
2017-06-19T15:22:53.987Z,165
2017-06-19T15:24:04.348Z,165
2017-06-19T15:25:14.732Z,165
2017-06-19T15:26:25.087Z,165
2017-06-19T15:27:35.194Z,165
2017-06-19T15:28:45.563Z,160
2017-06-19T15:29:55.912Z,160
2017-06-19T15:31:06.269Z,160
2017-06-19T15:32:16.649Z,160
2017-06-19T15:33:27.071Z,160
2017-06-19T15:34:37.433Z,160
2017-06-19T15:35:47.813Z,160
2017-06-19T15:36:57.911Z,160
2017-06-19T15:38:07.961Z,155
2017-06-19T15:39:18.086Z,155
2017-06-19T15:40:28.459Z,155
2017-06-19T15:41:38.878Z,155
2017-06-19T15:42:48.937Z,155
2017-06-19T15:43:59.023Z,155
2017-06-19T15:45:09.442Z,155
2017-06-19T15:46:19.816Z,150
2017-06-19T15:47:29.563Z,150
2017-06-19T15:48:39.644Z,150
2017-06-19T15:49:50.020Z,150
2017-06-19T15:51:00.456Z,150
2017-06-19T15:52:10.826Z,150
2017-06-19T15:53:21.221Z,150
2017-06-19T15:54:31.587Z,150
2017-06-19T15:55:41.955Z,145
2017-06-19T15:56:52.352Z,145
2017-06-19T15:58:02.767Z,145
2017-06-19T15:59:13.158Z,145
2017-06-19T16:00:23.537Z,145
2017-06-19T16:01:33.908Z,145
2017-06-19T16:02:43.702Z,145
2017-06-19T16:03:54.117Z,145
2017-06-19T16:05:04.483Z,145
2017-06-19T16:06:14.861Z,145
2017-06-19T16:07:25.267Z,145
2017-06-19T16:08:35.701Z,145
2017-06-19T16:09:46.082Z,140
2017-06-19T16:10:56.442Z,140
2017-06-19T16:12:06.848Z,140
2017-06-19T16:13:17.001Z,140
2017-06-19T16:14:27.425Z,145
2017-06-19T16:15:37.152Z,135
2017-06-19T16:16:47.517Z,135
2017-06-19T16:17:57.898Z,135
2017-06-19T16:19:08.265Z,135
2017-06-19T16:20:18.366Z,135
2017-06-19T16:21:28.743Z,135
2017-06-19T16:22:39.109Z,130
2017-06-19T16:23:50.986Z,130
2017-06-19T16:25:01.390Z,130
2017-06-19T16:26:11.474Z,130
2017-06-19T16:27:21.849Z,130
2017-06-19T16:28:31.291Z,125
2017-06-19T16:29:41.388Z,125
2017-06-19T16:30:51.769Z,125
2017-06-19T16:32:02.134Z,125
2017-06-19T16:33:12.507Z,125
2017-06-19T16:34:22.885Z,125
2017-06-19T16:35:33.281Z,120
2017-06-19T16:36:43.643Z,125
2017-06-19T16:37:54.138Z,120
2017-06-19T16:39:04.486Z,120
2017-06-19T16:40:14.867Z,120
2017-06-19T16:41:24.919Z,120
2017-06-19T16:42:35.279Z,115
2017-06-19T16:43:45.391Z,115
2017-06-19T16:44:55.758Z,115
2017-06-19T16:46:06.135Z,120
2017-06-19T16:47:16.478Z,115
2017-06-19T16:48:26.824Z,115
2017-06-19T16:49:37.248Z,115
2017-06-19T16:50:47.655Z,115
2017-06-19T16:51:58.026Z,115
2017-06-19T16:53:08.101Z,110
2017-06-19T16:54:17.831Z,110
2017-06-19T16:55:28.258Z,110
2017-06-19T16:56:38.636Z,105
2017-06-19T16:57:49.002Z,105
2017-06-19T16:58:59.374Z,105
2017-06-19T17:00:09.755Z,105
2017-06-19T17:01:19.879Z,105
2017-06-19T17:02:30.253Z,100
2017-06-19T17:03:40.340Z,100
2017-06-19T17:04:50.718Z,100
2017-06-19T17:06:01.088Z,100
2017-06-19T17:07:11.515Z,100
2017-06-19T17:08:21.897Z,95
2017-06-19T17:09:31.950Z,95
2017-06-19T17:10:42.317Z,95
2017-06-19T17:11:52.383Z,95